createdAt,value
2024-05-09T00:02:07.273Z,20.22
2024-05-09T00:04:33.692Z,20.21
2024-05-09T00:07:00.110Z,20.17
2024-05-09T00:09:26.506Z,20.15
2024-05-09T00:11:53.047Z,20.14
2024-05-09T00:14:19.564Z,20.13
2024-05-09T00:16:46.025Z,20.09
2024-05-09T00:19:12.597Z,20.08
2024-05-09T00:21:39.040Z,20.07
2024-05-09T00:24:05.426Z,20.06
2024-05-09T00:26:31.923Z,20.03
2024-05-09T00:28:58.434Z,20.03
2024-05-09T00:31:24.861Z,20.01
2024-05-09T00:33:51.512Z,19.98
2024-05-09T00:36:17.977Z,19.96
2024-05-09T00:38:44.386Z,19.96
2024-05-09T00:41:10.867Z,19.94
2024-05-09T00:43:37.310Z,19.94
2024-05-09T00:46:03.680Z,19.91
2024-05-09T00:48:30.319Z,19.92
2024-05-09T00:50:56.864Z,19.86
2024-05-09T00:53:23.393Z,19.84
2024-05-09T00:55:49.856Z,19.82
2024-05-09T00:58:16.259Z,19.82
2024-05-09T01:00:42.789Z,19.83
2024-05-09T01:03:11.029Z,19.82
2024-05-09T01:05:39.898Z,19.80
2024-05-09T01:08:06.816Z,19.78
2024-05-09T01:10:35.131Z,19.81
2024-05-09T01:13:02.660Z,19.76
2024-05-09T01:15:29.065Z,19.75
2024-05-09T01:17:55.958Z,19.73
2024-05-09T01:20:31.831Z,19.71
2024-05-09T01:23:06.565Z,19.69
2024-05-09T01:25:33.003Z,19.67
2024-05-09T01:27:59.392Z,19.65
2024-05-09T01:30:32.917Z,19.65
2024-05-09T01:33:02.043Z,19.61
2024-05-09T01:35:28.696Z,19.62
2024-05-09T01:37:55.216Z,19.61
2024-05-09T01:40:28.658Z,19.60
2024-05-09T01:43:01.953Z,19.57
2024-05-09T01:45:28.330Z,19.54
2024-05-09T01:47:54.854Z,19.57
2024-05-09T01:50:33.045Z,19.55
2024-05-09T01:53:03.943Z,19.50
2024-05-09T01:55:30.356Z,19.46
2024-05-09T01:57:56.765Z,19.43
2024-05-09T02:00:33.323Z,19.42
2024-05-09T02:03:04.883Z,19.41
2024-05-09T02:05:31.461Z,19.38
2024-05-09T02:07:57.937Z,19.35
2024-05-09T02:10:31.717Z,19.37
2024-05-09T02:12:59.357Z,19.34
2024-05-09T02:15:25.765Z,19.32
2024-05-09T02:17:52.273Z,19.30
2024-05-09T02:20:27.439Z,19.32
2024-05-09T02:23:00.304Z,19.28
2024-05-09T02:25:26.724Z,19.26
2024-05-09T02:27:53.141Z,19.24
2024-05-09T02:30:26.404Z,19.22
2024-05-09T02:33:02.496Z,19.20
2024-05-09T02:35:29.132Z,19.16
2024-05-09T02:37:55.633Z,19.14
2024-05-09T02:40:29.130Z,19.14
2024-05-09T02:43:02.593Z,19.10
2024-05-09T02:45:28.966Z,19.10
2024-05-09T02:47:55.518Z,19.08
2024-05-09T02:50:29.883Z,19.07
2024-05-09T02:53:03.317Z,19.05
2024-05-09T02:55:29.755Z,19.02
2024-05-09T02:57:56.131Z,19.00
2024-05-09T03:00:29.462Z,18.97
2024-05-09T03:03:03.646Z,18.94
2024-05-09T03:05:30.215Z,18.94
2024-05-09T03:07:56.618Z,18.93
2024-05-09T03:10:28.326Z,18.90
2024-05-09T03:12:55.358Z,18.85
2024-05-09T03:15:21.802Z,18.87
2024-05-09T03:17:48.386Z,18.86
2024-05-09T03:20:20.673Z,18.83
2024-05-09T03:22:52.695Z,18.82
2024-05-09T03:25:20.387Z,18.81
2024-05-09T03:27:46.793Z,18.81
2024-05-09T03:30:25.612Z,18.77
2024-05-09T03:32:57.376Z,18.74
2024-05-09T03:35:24.039Z,18.71
2024-05-09T03:37:50.546Z,18.72
2024-05-09T03:40:23.387Z,18.72
2024-05-09T03:42:52.560Z,18.70
2024-05-09T03:45:18.957Z,18.66
2024-05-09T03:47:45.693Z,18.66
2024-05-09T03:50:18.065Z,18.63
2024-05-09T03:52:52.001Z,18.61
2024-05-09T03:55:18.518Z,18.62
2024-05-09T03:57:44.929Z,18.61
2024-05-09T04:00:17.855Z,18.59
2024-05-09T04:02:49.429Z,18.57
2024-05-09T04:05:16.044Z,18.55
2024-05-09T04:07:42.468Z,18.55
2024-05-09T04:10:13.875Z,18.54
2024-05-09T04:12:43.551Z,18.52
2024-05-09T04:15:12.834Z,18.50
2024-05-09T04:17:39.988Z,18.48
2024-05-09T04:20:08.307Z,18.48
2024-05-09T04:22:34.915Z,18.45
2024-05-09T04:25:01.302Z,18.46
2024-05-09T04:27:27.671Z,18.40
2024-05-09T04:29:54.043Z,18.38
2024-05-09T04:32:20.599Z,18.38
2024-05-09T04:34:47.127Z,18.37
2024-05-09T04:37:13.601Z,18.35
2024-05-09T04:39:40.022Z,18.33
2024-05-09T04:42:06.437Z,18.35
2024-05-09T04:44:32.946Z,18.30
2024-05-09T04:46:59.393Z,18.30
2024-05-09T04:49:25.877Z,18.29
2024-05-09T04:51:52.384Z,18.27
2024-05-09T04:54:26.205Z,18.25
2024-05-09T04:57:00.334Z,18.27
2024-05-09T04:59:26.870Z,18.22
2024-05-09T05:01:53.562Z,18.22
2024-05-09T05:04:20.176Z,18.20
2024-05-09T05:06:46.612Z,18.20
2024-05-09T05:09:13.020Z,18.18
2024-05-09T05:11:39.566Z,18.15
2024-05-09T05:14:06.072Z,18.17
2024-05-09T05:16:32.471Z,18.19
2024-05-09T05:18:58.952Z,18.14
2024-05-09T05:21:25.399Z,18.09
2024-05-09T05:23:51.815Z,18.08
2024-05-09T05:26:18.234Z,18.07
2024-05-09T05:28:44.717Z,18.09
2024-05-09T05:31:11.246Z,18.02
2024-05-09T05:33:37.827Z,18.08
2024-05-09T05:36:04.353Z,18.05
2024-05-09T05:38:30.766Z,18.02
2024-05-09T05:40:57.268Z,17.99
2024-05-09T05:43:23.690Z,17.99
2024-05-09T05:45:50.123Z,18.02
2024-05-09T05:48:17.322Z,18.01
2024-05-09T05:50:44.304Z,17.98
2024-05-09T05:53:10.926Z,17.99
2024-05-09T05:55:37.427Z,18.04
2024-05-09T05:58:03.900Z,18.03
2024-05-09T06:00:37.663Z,18.04
2024-05-09T06:03:06.276Z,18.05
2024-05-09T06:05:33.013Z,18.05
2024-05-09T06:07:59.743Z,18.04
2024-05-09T06:10:34.812Z,18.03
2024-05-09T06:13:05.302Z,18.01
2024-05-09T06:15:31.929Z,18.05
2024-05-09T06:17:58.768Z,18.03
2024-05-09T06:20:34.570Z,18.04
2024-05-09T06:23:03.673Z,18.04
2024-05-09T06:25:30.175Z,18.08
2024-05-09T06:27:56.600Z,18.10
2024-05-09T06:30:30.334Z,18.16
2024-05-09T06:33:04.195Z,18.15
2024-05-09T06:35:31.183Z,18.17
2024-05-09T06:37:57.825Z,18.20
2024-05-09T06:40:29.294Z,18.22
2024-05-09T06:43:00.796Z,18.25
2024-05-09T06:45:27.200Z,18.31
2024-05-09T06:47:53.814Z,18.30
2024-05-09T06:50:24.160Z,18.36
2024-05-09T06:52:54.383Z,18.37
2024-05-09T06:55:20.766Z,18.43
2024-05-09T06:57:47.151Z,18.45
2024-05-09T07:00:19.201Z,18.47
2024-05-09T07:02:53.877Z,18.47
2024-05-09T07:05:20.452Z,18.45
2024-05-09T07:07:46.951Z,18.53
2024-05-09T07:10:21.531Z,18.53
2024-05-09T07:12:51.933Z,18.51
2024-05-09T07:15:18.352Z,18.60
2024-05-09T07:17:44.869Z,18.62
2024-05-09T07:20:16.586Z,18.66
2024-05-09T07:22:49.875Z,18.69
2024-05-09T07:25:16.303Z,18.75
2024-05-09T07:27:42.706Z,18.74
2024-05-09T07:30:11.559Z,18.76
2024-05-09T07:32:38.187Z,18.77
2024-05-09T07:35:04.715Z,18.83
2024-05-09T07:37:31.127Z,18.83
2024-05-09T07:39:57.518Z,18.90
2024-05-09T07:42:23.896Z,18.89
2024-05-09T07:44:50.268Z,18.95
2024-05-09T07:48:28.937Z,18.97
2024-05-09T07:51:54.743Z,19.03
2024-05-09T07:53:34.832Z,19.02
2024-05-09T07:55:35.816Z,19.09
2024-05-09T07:58:02.321Z,19.11
2024-05-09T08:00:31.549Z,19.21
2024-05-09T08:02:58.677Z,19.30
2024-05-09T08:05:25.280Z,19.31
2024-05-09T08:07:51.772Z,19.37
2024-05-09T08:10:22.196Z,19.17
2024-05-09T08:12:53.540Z,19.40
2024-05-09T08:15:19.999Z,19.42
2024-05-09T08:17:46.470Z,19.48
2024-05-09T08:20:15.937Z,19.49
2024-05-09T08:22:45.249Z,19.59
2024-05-09T08:25:14.002Z,19.60
2024-05-09T08:27:40.633Z,19.61
2024-05-09T08:30:10.189Z,19.66
2024-05-09T08:32:39.127Z,19.61
2024-05-09T08:35:05.587Z,19.65
2024-05-09T08:37:36.831Z,19.68
2024-05-09T08:40:06.586Z,19.67
2024-05-09T08:42:34.975Z,19.69
2024-05-09T08:45:01.382Z,19.74
2024-05-09T08:47:27.880Z,19.82
2024-05-09T08:49:54.303Z,19.81
2024-05-09T08:52:20.708Z,19.86
2024-05-09T08:54:47.222Z,19.88
2024-05-09T08:57:14.736Z,19.99
2024-05-09T08:59:41.122Z,20.06
2024-05-09T09:02:07.574Z,20.13
2024-05-09T09:04:34.187Z,20.17
2024-05-09T09:07:02.290Z,20.23
2024-05-09T09:09:29.926Z,20.25
2024-05-09T09:11:56.411Z,20.30
2024-05-09T09:14:22.867Z,20.35
2024-05-09T09:16:49.268Z,20.40
2024-05-09T09:19:15.923Z,20.42
2024-05-09T09:21:42.490Z,20.46
2024-05-09T09:24:10.026Z,20.50
2024-05-09T09:26:36.544Z,20.56
2024-05-09T09:29:02.936Z,20.64
2024-05-09T09:31:29.467Z,20.64
2024-05-09T09:33:56.094Z,20.76
2024-05-09T09:36:22.585Z,20.79
2024-05-09T09:38:48.965Z,20.89
2024-05-09T09:41:15.350Z,20.96
2024-05-09T09:43:41.922Z,21.03
2024-05-09T09:46:11.567Z,21.10
2024-05-09T09:48:39.152Z,21.18
2024-05-09T09:51:05.570Z,21.19
2024-05-09T09:53:32.024Z,21.28
2024-05-09T09:55:58.430Z,21.36
2024-05-09T09:58:25.049Z,21.41
2024-05-09T10:00:51.617Z,21.49
2024-05-09T10:03:18.168Z,21.54
2024-05-09T10:05:47.042Z,21.59
2024-05-09T10:08:13.878Z,21.70
2024-05-09T10:10:40.482Z,21.75
2024-05-09T10:13:07.323Z,21.81
2024-05-09T10:15:33.980Z,21.84
2024-05-09T10:18:00.463Z,21.89
2024-05-09T10:20:30.902Z,21.94
2024-05-09T10:22:59.021Z,22.00
2024-05-09T10:25:25.502Z,22.04
2024-05-09T10:27:51.962Z,22.11
2024-05-09T10:30:25.858Z,22.18
2024-05-09T10:32:56.383Z,22.21
2024-05-09T10:35:22.900Z,22.27
2024-05-09T10:37:49.281Z,22.33
2024-05-09T10:42:43.636Z,22.46
2024-05-09T10:45:10.035Z,22.51
2024-05-09T10:47:36.502Z,22.53
2024-05-09T10:50:04.885Z,22.54
2024-05-09T10:52:32.392Z,22.58
2024-05-09T10:54:59.919Z,22.62
2024-05-09T10:57:27.382Z,22.70
2024-05-09T10:59:53.813Z,22.76
2024-05-09T11:02:20.289Z,22.79
2024-05-09T11:04:46.858Z,22.87
2024-05-09T11:07:13.374Z,22.91
2024-05-09T11:09:39.877Z,22.98
2024-05-09T11:12:06.359Z,22.69
2024-05-09T11:14:32.834Z,23.07
2024-05-09T11:16:59.220Z,23.15
2024-05-09T11:19:25.772Z,23.21
2024-05-09T11:21:52.450Z,23.26
2024-05-09T11:24:18.897Z,23.29
2024-05-09T11:26:45.290Z,23.40
2024-05-09T11:29:11.675Z,23.42
2024-05-09T11:31:38.088Z,23.52
2024-05-09T11:34:04.513Z,23.57
2024-05-09T11:36:30.977Z,23.64
2024-05-09T11:38:57.404Z,23.65
2024-05-09T11:41:23.792Z,23.72
2024-05-09T11:43:50.216Z,23.79
2024-05-09T11:46:16.806Z,23.82
2024-05-09T11:48:43.652Z,23.89
2024-05-09T11:51:10.126Z,23.95
2024-05-09T11:53:36.505Z,24.01
2024-05-09T11:56:03.104Z,24.04
2024-05-09T11:58:29.708Z,24.05
2024-05-09T12:00:56.295Z,24.10
2024-05-09T12:03:22.883Z,24.11
2024-05-09T12:05:49.431Z,24.14
2024-05-09T12:08:15.891Z,24.20
2024-05-09T12:10:42.468Z,24.24
2024-05-09T12:13:09.066Z,24.29
2024-05-09T12:15:35.566Z,24.36
2024-05-09T12:18:03.896Z,24.39
2024-05-09T12:20:36.651Z,24.42
2024-05-09T12:23:05.767Z,24.51
2024-05-09T12:25:32.258Z,24.55
2024-05-09T12:27:58.786Z,24.64
2024-05-09T12:30:33.327Z,24.75
2024-05-09T12:33:04.528Z,24.78
2024-05-09T12:35:31.171Z,24.84
2024-05-09T12:37:57.606Z,24.90
2024-05-09T12:40:34.048Z,24.94
2024-05-09T12:43:03.654Z,24.96
2024-05-09T12:45:30.110Z,25.02
2024-05-09T12:47:56.635Z,25.11
2024-05-09T12:50:29.911Z,25.19
2024-05-09T12:52:59.300Z,25.25
2024-05-09T12:55:25.684Z,25.26
2024-05-09T12:57:52.110Z,25.27
2024-05-09T13:00:24.031Z,25.32
2024-05-09T13:02:57.572Z,25.34
2024-05-09T13:05:24.470Z,25.36
2024-05-09T13:07:51.028Z,25.38
2024-05-09T13:10:25.536Z,25.48
2024-05-09T13:12:58.024Z,25.57
2024-05-09T13:15:24.441Z,25.60
2024-05-09T13:17:50.873Z,25.69
2024-05-09T13:20:26.051Z,25.73
2024-05-09T13:22:58.290Z,25.82
2024-05-09T13:25:24.693Z,25.87
2024-05-09T13:27:51.090Z,25.93
2024-05-09T13:30:25.926Z,25.92
2024-05-09T13:32:56.698Z,25.94
2024-05-09T13:35:23.156Z,25.96
2024-05-09T13:37:49.540Z,26.03
2024-05-09T13:40:23.257Z,26.04
2024-05-09T13:42:53.812Z,26.05
2024-05-09T13:45:20.262Z,26.10
2024-05-09T13:47:46.750Z,26.16
2024-05-09T13:50:20.587Z,26.20
2024-05-09T13:52:54.524Z,26.29
2024-05-09T13:55:21.021Z,26.32
2024-05-09T13:57:47.511Z,26.34
2024-05-09T14:00:27.115Z,26.37
2024-05-09T14:03:00.351Z,26.41
2024-05-09T14:05:27.029Z,26.48
2024-05-09T14:07:53.479Z,26.55
2024-05-09T14:10:25.948Z,26.62
2024-05-09T14:12:57.018Z,26.63
2024-05-09T14:15:23.403Z,26.65
2024-05-09T14:17:49.834Z,26.73
2024-05-09T14:20:23.855Z,26.75
2024-05-09T14:22:57.021Z,26.78
2024-05-09T14:25:23.427Z,26.82
2024-05-09T14:27:49.902Z,26.87
2024-05-09T14:30:22.948Z,26.87
2024-05-09T14:32:57.090Z,26.91
2024-05-09T14:35:23.532Z,26.93
2024-05-09T14:37:49.914Z,26.93
2024-05-09T14:40:30.511Z,26.99
2024-05-09T14:43:03.131Z,27.09
2024-05-09T14:45:29.790Z,27.16
2024-05-09T14:47:56.674Z,27.20
2024-05-09T14:50:28.217Z,27.25
2024-05-09T14:53:01.370Z,27.25
2024-05-09T14:55:27.811Z,27.24
2024-05-09T14:57:54.431Z,27.27
2024-05-09T15:00:28.632Z,27.27
2024-05-09T15:02:59.358Z,27.26
2024-05-09T15:05:25.819Z,27.25
2024-05-09T15:08:07.755Z,27.26
2024-05-09T15:10:36.247Z,27.27
2024-05-09T15:13:04.128Z,27.29
2024-05-09T15:15:30.925Z,27.34
2024-05-09T15:17:57.536Z,27.43
2024-05-09T15:20:31.452Z,27.48
2024-05-09T15:23:02.085Z,27.48
2024-05-09T15:25:28.718Z,27.49
2024-05-09T15:27:55.312Z,27.52
2024-05-09T15:30:29.927Z,27.52
2024-05-09T15:32:59.027Z,27.55
2024-05-09T15:35:25.514Z,27.58
2024-05-09T15:37:51.898Z,27.59
2024-05-09T15:40:25.953Z,27.61
2024-05-09T15:43:01.442Z,27.64
2024-05-09T15:45:27.867Z,27.61
2024-05-09T15:47:54.353Z,27.62
2024-05-09T15:50:28.807Z,27.60
2024-05-09T15:53:02.760Z,27.63
2024-05-09T15:55:29.147Z,27.61
2024-05-09T15:57:55.583Z,27.62
2024-05-09T16:00:29.060Z,27.69
2024-05-09T16:03:03.095Z,27.70
2024-05-09T16:05:29.744Z,27.66
2024-05-09T16:07:56.216Z,27.67
2024-05-09T16:10:26.058Z,27.63
2024-05-09T16:12:58.303Z,27.63
2024-05-09T16:15:24.694Z,27.66
2024-05-09T16:17:51.080Z,27.68
2024-05-09T16:20:28.994Z,27.65
2024-05-09T16:23:03.173Z,27.64
2024-05-09T16:25:29.604Z,27.62
2024-05-09T16:27:56.112Z,27.64
2024-05-09T16:30:31.389Z,27.61
2024-05-09T16:33:01.565Z,27.63
2024-05-09T16:35:28.146Z,27.62
2024-05-09T16:37:54.539Z,27.61
2024-05-09T16:40:29.376Z,27.61
2024-05-09T16:43:01.344Z,27.61
2024-05-09T16:45:27.765Z,27.57
2024-05-09T16:47:54.303Z,27.55
2024-05-09T16:50:28.735Z,27.50
2024-05-09T16:52:58.452Z,27.54
2024-05-09T16:55:25.046Z,27.50
2024-05-09T16:57:51.492Z,27.50
2024-05-09T17:00:26.429Z,27.47
2024-05-09T17:03:02.783Z,27.50
2024-05-09T17:05:29.382Z,27.49
2024-05-09T17:07:55.889Z,27.43
2024-05-09T17:10:29.286Z,27.42
2024-05-09T17:12:59.169Z,27.39
2024-05-09T17:15:25.551Z,27.36
2024-05-09T17:17:52.030Z,27.37
2024-05-09T17:20:28.950Z,27.39
2024-05-09T17:22:59.837Z,27.33
2024-05-09T17:25:26.252Z,27.31
2024-05-09T17:27:52.752Z,27.29
2024-05-09T17:30:28.574Z,27.30
2024-05-09T17:32:59.198Z,27.29
2024-05-09T17:35:25.657Z,27.24
2024-05-09T17:37:52.043Z,27.21
2024-05-09T17:40:27.152Z,27.18
2024-05-09T17:42:57.770Z,27.12
2024-05-09T17:45:24.207Z,27.10
2024-05-09T17:47:50.630Z,27.05
2024-05-09T17:50:23.907Z,27.04
2024-05-09T17:52:54.148Z,27.00
2024-05-09T17:55:20.748Z,26.99
2024-05-09T17:57:47.348Z,26.93
2024-05-09T18:00:17.434Z,26.92
2024-05-09T18:02:47.941Z,26.84
2024-05-09T18:05:14.469Z,26.81
2024-05-09T18:07:40.942Z,26.77
2024-05-09T18:10:12.647Z,26.74
2024-05-09T18:12:42.378Z,26.71
2024-05-09T18:15:08.808Z,26.68
2024-05-09T18:17:35.273Z,26.61
2024-05-09T18:20:02.072Z,26.59
2024-05-09T18:22:28.574Z,26.57
2024-05-09T18:24:55.078Z,26.55
2024-05-09T18:27:21.510Z,26.54
2024-05-09T18:29:47.887Z,26.47
2024-05-09T18:32:14.354Z,26.40
2024-05-09T18:34:40.774Z,26.38
2024-05-09T18:37:07.307Z,26.32
2024-05-09T18:39:33.824Z,26.30
2024-05-09T18:42:00.214Z,26.28
2024-05-09T18:44:26.606Z,26.21
2024-05-09T18:46:52.983Z,26.15
2024-05-09T18:49:19.636Z,26.15
2024-05-09T18:51:46.182Z,25.76
2024-05-09T18:54:12.620Z,26.04
2024-05-09T18:56:39.012Z,26.02
2024-05-09T18:59:05.390Z,25.97
2024-05-09T19:01:32.054Z,25.93
2024-05-09T19:03:58.756Z,25.91
2024-05-09T19:06:25.237Z,25.85
2024-05-09T19:08:51.642Z,25.82
2024-05-09T19:11:18.041Z,25.81
2024-05-09T19:13:44.486Z,25.78
2024-05-09T19:16:10.984Z,25.73
2024-05-09T19:18:37.595Z,25.67
2024-05-09T19:21:04.052Z,25.64
2024-05-09T19:23:32.547Z,25.59
2024-05-09T19:25:59.167Z,25.57
2024-05-09T19:28:25.740Z,25.53
2024-05-09T19:30:52.235Z,25.50
2024-05-09T19:33:18.715Z,25.47
2024-05-09T19:35:45.135Z,25.42
2024-05-09T19:38:11.579Z,25.38
2024-05-09T19:40:38.057Z,25.33
2024-05-09T19:43:05.573Z,25.29
2024-05-09T19:45:33.648Z,25.25
2024-05-09T19:48:00.868Z,25.23
2024-05-09T19:50:36.840Z,25.19
2024-05-09T19:53:08.722Z,25.15
2024-05-09T19:55:35.240Z,25.12
2024-05-09T19:58:04.481Z,25.13
2024-05-09T20:00:35.842Z,25.10
2024-05-09T20:03:03.949Z,25.08
2024-05-09T20:05:31.185Z,25.04
2024-05-09T20:07:57.818Z,24.99
2024-05-09T20:10:29.815Z,24.96
2024-05-09T20:12:59.165Z,24.91
2024-05-09T20:15:25.728Z,24.86
2024-05-09T20:17:52.230Z,24.83
2024-05-09T20:20:28.291Z,24.79
2024-05-09T20:23:02.621Z,24.75
2024-05-09T20:25:29.013Z,24.72
2024-05-09T20:27:55.502Z,24.69
2024-05-09T20:30:28.978Z,24.67
2024-05-09T20:32:59.067Z,24.64
2024-05-09T20:35:25.537Z,24.59
2024-05-09T20:37:51.925Z,24.55
2024-05-09T20:40:25.604Z,24.51
2024-05-09T20:42:57.876Z,24.43
2024-05-09T20:45:24.342Z,24.44
2024-05-09T20:47:50.873Z,24.38
2024-05-09T20:50:27.424Z,24.33
2024-05-09T20:52:59.582Z,24.30
2024-05-09T20:55:25.996Z,24.30
2024-05-09T20:57:52.607Z,24.24
2024-05-09T21:00:22.626Z,24.23
2024-05-09T21:02:56.260Z,24.24
2024-05-09T21:05:22.782Z,24.23
2024-05-09T21:07:49.201Z,24.17
2024-05-09T21:10:19.739Z,24.15
2024-05-09T21:12:49.145Z,24.17
2024-05-09T21:15:15.563Z,24.18
2024-05-09T21:17:42.008Z,24.14
2024-05-09T21:20:14.191Z,24.08
2024-05-09T21:22:43.624Z,24.07
2024-05-09T21:25:10.157Z,24.06
2024-05-09T21:27:36.841Z,24.04
2024-05-09T21:30:04.335Z,24.05
2024-05-09T21:32:31.004Z,24.01
2024-05-09T21:34:57.485Z,23.95
2024-05-09T21:37:23.897Z,23.90
2024-05-09T21:39:50.358Z,23.88
2024-05-09T21:42:16.745Z,23.87
2024-05-09T21:44:43.162Z,23.84
2024-05-09T21:47:09.598Z,23.81
2024-05-09T21:49:36.080Z,23.78
2024-05-09T21:52:02.533Z,23.77
2024-05-09T21:54:29.083Z,23.76
2024-05-09T21:56:55.455Z,23.69
2024-05-09T21:59:21.840Z,23.66
2024-05-09T22:01:48.394Z,23.64
2024-05-09T22:04:14.919Z,23.60
2024-05-09T22:06:41.490Z,23.58
2024-05-09T22:09:07.913Z,23.57
2024-05-09T22:11:34.300Z,23.53
2024-05-09T22:14:00.709Z,23.51
2024-05-09T22:16:27.123Z,23.48
2024-05-09T22:18:53.672Z,23.44
2024-05-09T22:21:20.083Z,23.42
2024-05-09T22:23:46.507Z,23.38
2024-05-09T22:26:12.917Z,23.37
2024-05-09T22:28:39.299Z,23.33
2024-05-09T22:31:05.715Z,23.30
2024-05-09T22:33:32.282Z,23.28
2024-05-09T22:35:58.812Z,23.26
2024-05-09T22:38:25.234Z,23.22
2024-05-09T22:40:51.660Z,23.19
2024-05-09T22:43:18.594Z,23.15
2024-05-09T22:45:45.251Z,23.15
2024-05-09T22:48:11.909Z,23.10
2024-05-09T22:50:38.346Z,23.07
2024-05-09T22:53:04.772Z,23.04
2024-05-09T22:55:31.154Z,23.04
2024-05-09T22:57:57.630Z,23.02
2024-05-09T23:02:53.434Z,22.98
2024-05-09T23:05:19.981Z,22.94
2024-05-09T23:07:46.426Z,22.93
2024-05-09T23:10:17.371Z,22.91
2024-05-09T23:12:51.213Z,22.88
2024-05-09T23:15:17.623Z,22.84
2024-05-09T23:17:44.193Z,22.83
2024-05-09T23:20:11.737Z,22.77
2024-05-09T23:22:40.836Z,22.75
2024-05-09T23:25:07.267Z,22.73
2024-05-09T23:27:33.683Z,22.72
2024-05-09T23:30:00.131Z,22.69
2024-05-09T23:32:26.573Z,22.70
2024-05-09T23:34:53.066Z,22.67
2024-05-09T23:37:19.665Z,22.65
2024-05-09T23:39:46.202Z,22.63
2024-05-09T23:42:12.597Z,22.59
2024-05-09T23:44:38.976Z,22.58
2024-05-09T23:47:07.348Z,22.54
2024-05-09T23:49:34.417Z,22.50
2024-05-09T23:52:00.884Z,22.50
2024-05-09T23:54:27.303Z,22.54
2024-05-09T23:56:53.680Z,22.50
2024-05-09T23:59:20.053Z,22.48
